sensor_id;sensor_type;location;lat;lon;timestamp;P1;durP1;ratioP1;P2;durP2;ratioP2
3299;SDS011;1662;49.310;8.134;2023-08-07T00:00:49;3.43;;;2.53;;
3299;SDS011;1662;49.310;8.134;2023-08-07T00:03:18;3.37;;;2.50;;
3299;SDS011;1662;49.310;8.134;2023-08-07T00:05:47;7.63;;;2.50;;
3299;SDS011;1662;49.310;8.134;2023-08-07T00:08:13;3.07;;;2.70;;
3299;SDS011;1662;49.310;8.134;2023-08-07T00:10:38;4.13;;;2.40;;
3299;SDS011;1662;49.310;8.134;2023-08-07T00:13:04;2.50;;;1.97;;
3299;SDS011;1662;49.310;8.134;2023-08-07T00:15:31;2.90;;;2.40;;
3299;SDS011;1662;49.310;8.134;2023-08-07T00:17:58;3.53;;;2.50;;
3299;SDS011;1662;49.310;8.134;2023-08-07T00:20:24;22.83;;;3.13;;
3299;SDS011;1662;49.310;8.134;2023-08-07T00:22:49;6.63;;;2.10;;
3299;SDS011;1662;49.310;8.134;2023-08-07T00:25:15;5.30;;;2.20;;
3299;SDS011;1662;49.310;8.134;2023-08-07T00:27:40;2.80;;;2.00;;
3299;SDS011;1662;49.310;8.134;2023-08-07T00:30:06;2.80;;;2.03;;
3299;SDS011;1662;49.310;8.134;2023-08-07T00:32:32;2.40;;;2.20;;
3299;SDS011;1662;49.310;8.134;2023-08-07T00:34:58;4.60;;;2.60;;
3299;SDS011;1662;49.310;8.134;2023-08-07T00:37:23;3.17;;;2.23;;
3299;SDS011;1662;49.310;8.134;2023-08-07T00:39:49;3.03;;;2.17;;
3299;SDS011;1662;49.310;8.134;2023-08-07T00:42:14;8.17;;;1.83;;
3299;SDS011;1662;49.310;8.134;2023-08-07T00:44:40;3.10;;;2.37;;
3299;SDS011;1662;49.310;8.134;2023-08-07T00:47:06;3.90;;;2.53;;
3299;SDS011;1662;49.310;8.134;2023-08-07T00:49:32;4.50;;;2.70;;
3299;SDS011;1662;49.310;8.134;2023-08-07T00:51:58;2.33;;;2.13;;
3299;SDS011;1662;49.310;8.134;2023-08-07T00:54:23;2.50;;;2.30;;
3299;SDS011;1662;49.310;8.134;2023-08-07T00:56:50;4.90;;;2.40;;
3299;SDS011;1662;49.310;8.134;2023-08-07T00:59:16;5.23;;;1.90;;
3299;SDS011;1662;49.310;8.134;2023-08-07T01:01:43;2.50;;;2.40;;
3299;SDS011;1662;49.310;8.134;2023-08-07T01:04:10;4.83;;;2.80;;
3299;SDS011;1662;49.310;8.134;2023-08-07T01:06:35;5.80;;;2.30;;
3299;SDS011;1662;49.310;8.134;2023-08-07T01:09:01;3.10;;;2.80;;
3299;SDS011;1662;49.310;8.134;2023-08-07T01:11:34;2.93;;;2.67;;
3299;SDS011;1662;49.310;8.134;2023-08-07T01:14:13;5.30;;;2.10;;
3299;SDS011;1662;49.310;8.134;2023-08-07T01:17:00;2.50;;;2.10;;
3299;SDS011;1662;49.310;8.134;2023-08-07T01:19:31;5.23;;;2.70;;
3299;SDS011;1662;49.310;8.134;2023-08-07T01:22:14;4.23;;;2.23;;
3299;SDS011;1662;49.310;8.134;2023-08-07T01:24:44;2.40;;;1.90;;
3299;SDS011;1662;49.310;8.134;2023-08-07T01:32:32;2.07;;;1.97;;
3299;SDS011;1662;49.310;8.134;2023-08-07T01:35:19;2.90;;;2.60;;
3299;SDS011;1662;49.310;8.134;2023-08-07T01:37:51;4.13;;;2.53;;
3299;SDS011;1662;49.310;8.134;2023-08-07T01:40:19;3.90;;;2.60;;
3299;SDS011;1662;49.310;8.134;2023-08-07T01:42:48;3.53;;;2.50;;
3299;SDS011;1662;49.310;8.134;2023-08-07T01:45:21;3.40;;;2.40;;
3299;SDS011;1662;49.310;8.134;2023-08-07T01:47:47;4.43;;;2.43;;
3299;SDS011;1662;49.310;8.134;2023-08-07T01:50:13;3.43;;;2.37;;
3299;SDS011;1662;49.310;8.134;2023-08-07T01:52:39;2.23;;;2.13;;
3299;SDS011;1662;49.310;8.134;2023-08-07T01:55:06;3.97;;;2.33;;
3299;SDS011;1662;49.310;8.134;2023-08-07T01:57:32;6.03;;;3.10;;
3299;SDS011;1662;49.310;8.134;2023-08-07T01:59:58;5.00;;;2.80;;
3299;SDS011;1662;49.310;8.134;2023-08-07T02:02:24;4.30;;;3.00;;
3299;SDS011;1662;49.310;8.134;2023-08-07T02:04:49;3.13;;;2.43;;
3299;SDS011;1662;49.310;8.134;2023-08-07T02:07:15;6.00;;;2.37;;
3299;SDS011;1662;49.310;8.134;2023-08-07T02:09:41;2.60;;;2.10;;
3299;SDS011;1662;49.310;8.134;2023-08-07T02:12:06;5.50;;;2.73;;
3299;SDS011;1662;49.310;8.134;2023-08-07T02:14:33;2.70;;;2.40;;
3299;SDS011;1662;49.310;8.134;2023-08-07T02:17:00;3.20;;;2.80;;
3299;SDS011;1662;49.310;8.134;2023-08-07T02:19:26;3.03;;;2.20;;
3299;SDS011;1662;49.310;8.134;2023-08-07T02:21:54;2.73;;;2.50;;
3299;SDS011;1662;49.310;8.134;2023-08-07T02:24:19;3.87;;;2.43;;
3299;SDS011;1662;49.310;8.134;2023-08-07T02:26:45;4.00;;;3.23;;
3299;SDS011;1662;49.310;8.134;2023-08-07T02:29:11;6.17;;;2.50;;
3299;SDS011;1662;49.310;8.134;2023-08-07T02:31:36;4.37;;;2.77;;
3299;SDS011;1662;49.310;8.134;2023-08-07T02:34:02;2.67;;;2.40;;
3299;SDS011;1662;49.310;8.134;2023-08-07T02:36:29;2.90;;;2.50;;
3299;SDS011;1662;49.310;8.134;2023-08-07T02:38:55;4.80;;;3.10;;
3299;SDS011;1662;49.310;8.134;2023-08-07T02:41:21;7.50;;;2.60;;
3299;SDS011;1662;49.310;8.134;2023-08-07T02:43:46;5.60;;;2.40;;
3299;SDS011;1662;49.310;8.134;2023-08-07T02:46:12;3.13;;;2.93;;
3299;SDS011;1662;49.310;8.134;2023-08-07T02:48:40;2.50;;;2.33;;
3299;SDS011;1662;49.310;8.134;2023-08-07T02:51:06;2.60;;;2.37;;
3299;SDS011;1662;49.310;8.134;2023-08-07T02:53:31;4.10;;;2.67;;
3299;SDS011;1662;49.310;8.134;2023-08-07T02:55:57;4.90;;;2.77;;
3299;SDS011;1662;49.310;8.134;2023-08-07T02:58:23;3.13;;;2.30;;
3299;SDS011;1662;49.310;8.134;2023-08-07T03:00:48;6.20;;;2.80;;
3299;SDS011;1662;49.310;8.134;2023-08-07T03:03:14;4.13;;;2.40;;
3299;SDS011;1662;49.310;8.134;2023-08-07T03:05:47;2.63;;;2.53;;
3299;SDS011;1662;49.310;8.134;2023-08-07T03:08:16;4.60;;;2.40;;
3299;SDS011;1662;49.310;8.134;2023-08-07T03:10:42;4.17;;;2.50;;
3299;SDS011;1662;49.310;8.134;2023-08-07T03:13:14;4.13;;;3.27;;
3299;SDS011;1662;49.310;8.134;2023-08-07T03:15:40;5.27;;;3.10;;
3299;SDS011;1662;49.310;8.134;2023-08-07T03:18:05;12.33;;;3.33;;
3299;SDS011;1662;49.310;8.134;2023-08-07T03:20:31;8.10;;;2.60;;
3299;SDS011;1662;49.310;8.134;2023-08-07T03:22:57;6.13;;;3.13;;
3299;SDS011;1662;49.310;8.134;2023-08-07T03:25:22;3.23;;;2.80;;
3299;SDS011;1662;49.310;8.134;2023-08-07T03:27:48;4.50;;;2.70;;
3299;SDS011;1662;49.310;8.134;2023-08-07T03:30:13;3.57;;;2.60;;
3299;SDS011;1662;49.310;8.134;2023-08-07T03:32:39;5.00;;;3.17;;
3299;SDS011;1662;49.310;8.134;2023-08-07T03:35:06;6.70;;;2.80;;
3299;SDS011;1662;49.310;8.134;2023-08-07T03:37:34;8.90;;;3.13;;
3299;SDS011;1662;49.310;8.134;2023-08-07T03:40:01;3.20;;;3.00;;
3299;SDS011;1662;49.310;8.134;2023-08-07T03:42:27;4.00;;;2.90;;
3299;SDS011;1662;49.310;8.134;2023-08-07T03:44:53;3.73;;;2.90;;
3299;SDS011;1662;49.310;8.134;2023-08-07T03:47:18;4.10;;;2.97;;
3299;SDS011;1662;49.310;8.134;2023-08-07T03:49:44;3.20;;;2.70;;
3299;SDS011;1662;49.310;8.134;2023-08-07T03:52:12;6.17;;;3.40;;
3299;SDS011;1662;49.310;8.134;2023-08-07T03:54:38;3.20;;;2.80;;
3299;SDS011;1662;49.310;8.134;2023-08-07T03:57:03;2.83;;;2.63;;
3299;SDS011;1662;49.310;8.134;2023-08-07T03:59:29;3.13;;;2.70;;
3299;SDS011;1662;49.310;8.134;2023-08-07T04:01:55;4.00;;;2.87;;
3299;SDS011;1662;49.310;8.134;2023-08-07T04:04:20;2.37;;;2.27;;
3299;SDS011;1662;49.310;8.134;2023-08-07T04:06:46;5.20;;;3.10;;
3299;SDS011;1662;49.310;8.134;2023-08-07T04:09:11;4.03;;;2.60;;
3299;SDS011;1662;49.310;8.134;2023-08-07T04:11:37;4.30;;;2.47;;
3299;SDS011;1662;49.310;8.134;2023-08-07T04:14:02;6.40;;;3.13;;
3299;SDS011;1662;49.310;8.134;2023-08-07T04:16:29;6.40;;;2.60;;
3299;SDS011;1662;49.310;8.134;2023-08-07T04:18:56;3.60;;;2.93;;
3299;SDS011;1662;49.310;8.134;2023-08-07T04:21:21;3.00;;;2.37;;
3299;SDS011;1662;49.310;8.134;2023-08-07T04:23:47;3.67;;;3.33;;
3299;SDS011;1662;49.310;8.134;2023-08-07T04:26:13;7.07;;;3.07;;
3299;SDS011;1662;49.310;8.134;2023-08-07T04:28:39;3.93;;;3.60;;
3299;SDS011;1662;49.310;8.134;2023-08-07T04:31:05;3.17;;;2.87;;
3299;SDS011;1662;49.310;8.134;2023-08-07T04:33:31;5.10;;;2.93;;
3299;SDS011;1662;49.310;8.134;2023-08-07T04:35:56;6.47;;;3.33;;
3299;SDS011;1662;49.310;8.134;2023-08-07T04:38:22;5.60;;;2.97;;
3299;SDS011;1662;49.310;8.134;2023-08-07T04:40:48;7.50;;;3.73;;
3299;SDS011;1662;49.310;8.134;2023-08-07T04:43:15;8.77;;;3.10;;
3299;SDS011;1662;49.310;8.134;2023-08-07T04:45:42;4.40;;;2.70;;
3299;SDS011;1662;49.310;8.134;2023-08-07T04:48:10;2.97;;;2.60;;
3299;SDS011;1662;49.310;8.134;2023-08-07T04:50:36;5.10;;;2.70;;
3299;SDS011;1662;49.310;8.134;2023-08-07T04:53:02;5.20;;;3.07;;
3299;SDS011;1662;49.310;8.134;2023-08-07T04:55:29;5.73;;;2.73;;
3299;SDS011;1662;49.310;8.134;2023-08-07T04:57:55;4.30;;;2.70;;
3299;SDS011;1662;49.310;8.134;2023-08-07T05:00:21;7.30;;;3.10;;
3299;SDS011;1662;49.310;8.134;2023-08-07T05:02:47;4.20;;;2.70;;
3299;SDS011;1662;49.310;8.134;2023-08-07T05:05:15;3.80;;;3.03;;
3299;SDS011;1662;49.310;8.134;2023-08-07T05:07:42;4.50;;;2.43;;
3299;SDS011;1662;49.310;8.134;2023-08-07T05:10:08;2.50;;;2.33;;
3299;SDS011;1662;49.310;8.134;2023-08-07T05:12:34;2.53;;;2.33;;
3299;SDS011;1662;49.310;8.134;2023-08-07T05:15:00;4.27;;;2.90;;
3299;SDS011;1662;49.310;8.134;2023-08-07T05:17:26;3.00;;;2.60;;
3299;SDS011;1662;49.310;8.134;2023-08-07T05:19:51;3.00;;;2.80;;
3299;SDS011;1662;49.310;8.134;2023-08-07T05:22:17;2.80;;;2.60;;
3299;SDS011;1662;49.310;8.134;2023-08-07T05:24:43;6.23;;;2.63;;
3299;SDS011;1662;49.310;8.134;2023-08-07T05:27:09;3.90;;;2.93;;
3299;SDS011;1662;49.310;8.134;2023-08-07T05:29:35;2.90;;;2.70;;
3299;SDS011;1662;49.310;8.134;2023-08-07T05:32:13;4.10;;;2.80;;
3299;SDS011;1662;49.310;8.134;2023-08-07T05:34:40;2.80;;;2.60;;
3299;SDS011;1662;49.310;8.134;2023-08-07T05:37:05;5.20;;;2.80;;
3299;SDS011;1662;49.310;8.134;2023-08-07T05:39:32;4.83;;;2.47;;
3299;SDS011;1662;49.310;8.134;2023-08-07T05:41:57;4.83;;;3.13;;
3299;SDS011;1662;49.310;8.134;2023-08-07T05:44:24;2.90;;;2.67;;
3299;SDS011;1662;49.310;8.134;2023-08-07T05:46:52;2.67;;;2.50;;
3299;SDS011;1662;49.310;8.134;2023-08-07T05:49:17;4.73;;;2.60;;
3299;SDS011;1662;49.310;8.134;2023-08-07T05:51:44;2.77;;;2.67;;
3299;SDS011;1662;49.310;8.134;2023-08-07T05:54:09;6.33;;;3.33;;
3299;SDS011;1662;49.310;8.134;2023-08-07T05:56:35;3.47;;;2.60;;
3299;SDS011;1662;49.310;8.134;2023-08-07T05:59:02;4.90;;;2.87;;
3299;SDS011;1662;49.310;8.134;2023-08-07T06:01:28;2.87;;;2.63;;
3299;SDS011;1662;49.310;8.134;2023-08-07T06:03:59;4.63;;;2.50;;
3299;SDS011;1662;49.310;8.134;2023-08-07T06:06:25;4.53;;;2.50;;
3299;SDS011;1662;49.310;8.134;2023-08-07T06:08:53;5.30;;;2.63;;
3299;SDS011;1662;49.310;8.134;2023-08-07T06:11:19;4.63;;;2.60;;
3299;SDS011;1662;49.310;8.134;2023-08-07T06:13:44;2.97;;;2.67;;
3299;SDS011;1662;49.310;8.134;2023-08-07T06:16:10;6.30;;;3.50;;
3299;SDS011;1662;49.310;8.134;2023-08-07T06:18:36;3.40;;;2.87;;
3299;SDS011;1662;49.310;8.134;2023-08-07T06:21:02;3.07;;;2.83;;
3299;SDS011;1662;49.310;8.134;2023-08-07T06:23:31;7.00;;;2.83;;
3299;SDS011;1662;49.310;8.134;2023-08-07T06:25:57;3.67;;;3.13;;
3299;SDS011;1662;49.310;8.134;2023-08-07T06:28:23;2.53;;;2.33;;
3299;SDS011;1662;49.310;8.134;2023-08-07T06:30:49;3.27;;;2.70;;
3299;SDS011;1662;49.310;8.134;2023-08-07T06:33:15;6.03;;;3.10;;
3299;SDS011;1662;49.310;8.134;2023-08-07T06:35:40;2.53;;;2.13;;
3299;SDS011;1662;49.310;8.134;2023-08-07T06:38:07;2.93;;;2.67;;
3299;SDS011;1662;49.310;8.134;2023-08-07T06:40:37;5.93;;;2.53;;
3299;SDS011;1662;49.310;8.134;2023-08-07T06:43:02;5.40;;;3.00;;
3299;SDS011;1662;49.310;8.134;2023-08-07T06:45:28;3.10;;;2.87;;
3299;SDS011;1662;49.310;8.134;2023-08-07T06:47:53;2.73;;;2.40;;
3299;SDS011;1662;49.310;8.134;2023-08-07T06:50:19;2.90;;;2.70;;
3299;SDS011;1662;49.310;8.134;2023-08-07T06:52:45;2.87;;;2.67;;
3299;SDS011;1662;49.310;8.134;2023-08-07T06:55:10;2.60;;;2.40;;
3299;SDS011;1662;49.310;8.134;2023-08-07T06:57:36;4.40;;;2.47;;
3299;SDS011;1662;49.310;8.134;2023-08-07T07:00:02;2.80;;;2.43;;
3299;SDS011;1662;49.310;8.134;2023-08-07T07:02:28;2.80;;;2.33;;
3299;SDS011;1662;49.310;8.134;2023-08-07T07:04:53;2.40;;;2.30;;
3299;SDS011;1662;49.310;8.134;2023-08-07T07:07:19;2.90;;;2.50;;
3299;SDS011;1662;49.310;8.134;2023-08-07T07:09:45;3.30;;;2.40;;
3299;SDS011;1662;49.310;8.134;2023-08-07T07:12:10;3.90;;;2.67;;
3299;SDS011;1662;49.310;8.134;2023-08-07T07:14:38;2.90;;;2.70;;
3299;SDS011;1662;49.310;8.134;2023-08-07T07:17:04;7.63;;;2.27;;
3299;SDS011;1662;49.310;8.134;2023-08-07T07:19:29;2.00;;;1.90;;
3299;SDS011;1662;49.310;8.134;2023-08-07T07:21:55;2.60;;;2.40;;
3299;SDS011;1662;49.310;8.134;2023-08-07T07:24:20;2.23;;;2.13;;
3299;SDS011;1662;49.310;8.134;2023-08-07T07:26:46;2.93;;;2.07;;
3299;SDS011;1662;49.310;8.134;2023-08-07T07:29:11;2.37;;;2.17;;
3299;SDS011;1662;49.310;8.134;2023-08-07T07:31:37;3.33;;;2.53;;
3299;SDS011;1662;49.310;8.134;2023-08-07T07:34:02;2.20;;;2.00;;
3299;SDS011;1662;49.310;8.134;2023-08-07T07:36:28;2.90;;;2.70;;
3299;SDS011;1662;49.310;8.134;2023-08-07T07:38:56;6.20;;;2.77;;
3299;SDS011;1662;49.310;8.134;2023-08-07T07:41:22;2.57;;;2.00;;
3299;SDS011;1662;49.310;8.134;2023-08-07T07:43:48;2.10;;;2.00;;
3299;SDS011;1662;49.310;8.134;2023-08-07T07:46:13;4.90;;;2.80;;
3299;SDS011;1662;49.310;8.134;2023-08-07T07:48:39;3.47;;;3.17;;
3299;SDS011;1662;49.310;8.134;2023-08-07T07:51:07;3.00;;;2.77;;
3299;SDS011;1662;49.310;8.134;2023-08-07T07:53:33;4.90;;;2.07;;
3299;SDS011;1662;49.310;8.134;2023-08-07T07:55:59;4.20;;;2.43;;
3299;SDS011;1662;49.310;8.134;2023-08-07T07:58:24;2.77;;;2.53;;
3299;SDS011;1662;49.310;8.134;2023-08-07T08:00:50;5.83;;;2.57;;
3299;SDS011;1662;49.310;8.134;2023-08-07T08:03:19;3.80;;;2.70;;
3299;SDS011;1662;49.310;8.134;2023-08-07T08:05:48;5.27;;;2.30;;
3299;SDS011;1662;49.310;8.134;2023-08-07T08:08:15;2.20;;;2.10;;
3299;SDS011;1662;49.310;8.134;2023-08-07T08:10:44;2.03;;;1.83;;
3299;SDS011;1662;49.310;8.134;2023-08-07T08:13:12;3.20;;;2.90;;
3299;SDS011;1662;49.310;8.134;2023-08-07T08:15:37;4.93;;;2.93;;
3299;SDS011;1662;49.310;8.134;2023-08-07T08:18:03;6.37;;;2.43;;
3299;SDS011;1662;49.310;8.134;2023-08-07T08:20:29;4.87;;;2.60;;
3299;SDS011;1662;49.310;8.134;2023-08-07T08:22:56;3.77;;;2.60;;
3299;SDS011;1662;49.310;8.134;2023-08-07T08:25:22;2.13;;;2.03;;
3299;SDS011;1662;49.310;8.134;2023-08-07T08:27:47;5.43;;;2.13;;
3299;SDS011;1662;49.310;8.134;2023-08-07T08:30:14;2.20;;;2.10;;
3299;SDS011;1662;49.310;8.134;2023-08-07T08:32:40;2.70;;;2.50;;
3299;SDS011;1662;49.310;8.134;2023-08-07T08:35:07;2.50;;;2.30;;
3299;SDS011;1662;49.310;8.134;2023-08-07T08:37:33;2.23;;;2.10;;
3299;SDS011;1662;49.310;8.134;2023-08-07T08:39:59;3.10;;;2.47;;
3299;SDS011;1662;49.310;8.134;2023-08-07T08:42:24;2.97;;;2.37;;
3299;SDS011;1662;49.310;8.134;2023-08-07T08:44:54;2.13;;;1.93;;
3299;SDS011;1662;49.310;8.134;2023-08-07T08:47:21;2.17;;;2.07;;
3299;SDS011;1662;49.310;8.134;2023-08-07T08:49:51;6.47;;;2.80;;
3299;SDS011;1662;49.310;8.134;2023-08-07T08:52:31;3.23;;;2.50;;
3299;SDS011;1662;49.310;8.134;2023-08-07T08:54:57;2.23;;;2.03;;
3299;SDS011;1662;49.310;8.134;2023-08-07T08:57:27;2.70;;;2.07;;
3299;SDS011;1662;49.310;8.134;2023-08-07T08:59:54;2.90;;;2.70;;
3299;SDS011;1662;49.310;8.134;2023-08-07T09:02:21;2.50;;;2.23;;
3299;SDS011;1662;49.310;8.134;2023-08-07T09:04:47;4.60;;;2.20;;
3299;SDS011;1662;49.310;8.134;2023-08-07T09:07:16;2.63;;;2.43;;
3299;SDS011;1662;49.310;8.134;2023-08-07T09:09:44;3.17;;;2.40;;
3299;SDS011;1662;49.310;8.134;2023-08-07T09:12:22;2.37;;;2.17;;
3299;SDS011;1662;49.310;8.134;2023-08-07T09:14:53;2.10;;;1.93;;
3299;SDS011;1662;49.310;8.134;2023-08-07T09:17:26;3.90;;;2.20;;
3299;SDS011;1662;49.310;8.134;2023-08-07T09:19:54;2.50;;;2.20;;
3299;SDS011;1662;49.310;8.134;2023-08-07T09:22:20;7.23;;;2.43;;
3299;SDS011;1662;49.310;8.134;2023-08-07T09:24:46;2.60;;;2.10;;
3299;SDS011;1662;49.310;8.134;2023-08-07T09:27:11;1.93;;;1.83;;
3299;SDS011;1662;49.310;8.134;2023-08-07T09:29:41;2.83;;;2.07;;
3299;SDS011;1662;49.310;8.134;2023-08-07T09:32:08;2.37;;;2.03;;
3299;SDS011;1662;49.310;8.134;2023-08-07T09:34:38;4.83;;;2.67;;
3299;SDS011;1662;49.310;8.134;2023-08-07T09:37:07;2.23;;;2.00;;
3299;SDS011;1662;49.310;8.134;2023-08-07T09:39:33;2.50;;;1.93;;
3299;SDS011;1662;49.310;8.134;2023-08-07T09:42:00;1.97;;;1.87;;
3299;SDS011;1662;49.310;8.134;2023-08-07T09:44:34;3.43;;;3.00;;
3299;SDS011;1662;49.310;8.134;2023-08-07T09:47:01;4.00;;;2.00;;
3299;SDS011;1662;49.310;8.134;2023-08-07T09:49:47;2.10;;;2.00;;
3299;SDS011;1662;49.310;8.134;2023-08-07T09:52:13;5.23;;;2.60;;
3299;SDS011;1662;49.310;8.134;2023-08-07T09:54:40;5.30;;;2.73;;
3299;SDS011;1662;49.310;8.134;2023-08-07T09:57:06;3.63;;;2.10;;
3299;SDS011;1662;49.310;8.134;2023-08-07T09:59:34;2.13;;;2.00;;
3299;SDS011;1662;49.310;8.134;2023-08-07T10:02:01;6.03;;;3.17;;
3299;SDS011;1662;49.310;8.134;2023-08-07T10:04:28;2.10;;;2.00;;
3299;SDS011;1662;49.310;8.134;2023-08-07T10:06:54;4.30;;;1.93;;
3299;SDS011;1662;49.310;8.134;2023-08-07T10:09:20;3.67;;;2.30;;
3299;SDS011;1662;49.310;8.134;2023-08-07T10:11:46;2.03;;;1.93;;
3299;SDS011;1662;49.310;8.134;2023-08-07T10:14:13;3.47;;;2.30;;
3299;SDS011;1662;49.310;8.134;2023-08-07T10:16:39;2.90;;;2.30;;
3299;SDS011;1662;49.310;8.134;2023-08-07T10:19:06;2.33;;;2.13;;
3299;SDS011;1662;49.310;8.134;2023-08-07T10:21:35;2.33;;;1.93;;
3299;SDS011;1662;49.310;8.134;2023-08-07T10:24:06;1.90;;;1.80;;
3299;SDS011;1662;49.310;8.134;2023-08-07T10:26:33;2.10;;;2.00;;
3299;SDS011;1662;49.310;8.134;2023-08-07T10:29:02;2.23;;;2.13;;
3299;SDS011;1662;49.310;8.134;2023-08-07T10:31:31;5.00;;;2.30;;
3299;SDS011;1662;49.310;8.134;2023-08-07T10:33:58;2.00;;;1.80;;
3299;SDS011;1662;49.310;8.134;2023-08-07T10:36:23;2.43;;;2.13;;
3299;SDS011;1662;49.310;8.134;2023-08-07T10:39:07;1.83;;;1.73;;
3299;SDS011;1662;49.310;8.134;2023-08-07T10:41:44;3.93;;;2.30;;
3299;SDS011;1662;49.310;8.134;2023-08-07T10:44:17;1.90;;;1.80;;
3299;SDS011;1662;49.310;8.134;2023-08-07T10:46:49;2.33;;;2.13;;
3299;SDS011;1662;49.310;8.134;2023-08-07T10:54:40;2.00;;;1.90;;
3299;SDS011;1662;49.310;8.134;2023-08-07T10:57:16;2.33;;;2.13;;
3299;SDS011;1662;49.310;8.134;2023-08-07T11:02:21;4.00;;;2.40;;
3299;SDS011;1662;49.310;8.134;2023-08-07T11:04:51;3.17;;;2.30;;
3299;SDS011;1662;49.310;8.134;2023-08-07T11:07:24;1.87;;;1.77;;
3299;SDS011;1662;49.310;8.134;2023-08-07T11:09:51;2.03;;;1.93;;
3299;SDS011;1662;49.310;8.134;2023-08-07T11:12:17;1.93;;;1.93;;
3299;SDS011;1662;49.310;8.134;2023-08-07T11:14:45;2.20;;;2.10;;
3299;SDS011;1662;49.310;8.134;2023-08-07T11:17:11;2.07;;;1.80;;
3299;SDS011;1662;49.310;8.134;2023-08-07T11:19:39;2.20;;;1.80;;
3299;SDS011;1662;49.310;8.134;2023-08-07T11:22:05;2.10;;;2.00;;
3299;SDS011;1662;49.310;8.134;2023-08-07T11:24:31;3.23;;;2.30;;
3299;SDS011;1662;49.310;8.134;2023-08-07T11:26:56;2.03;;;1.80;;
3299;SDS011;1662;49.310;8.134;2023-08-07T11:29:23;2.00;;;1.90;;
3299;SDS011;1662;49.310;8.134;2023-08-07T11:31:50;2.37;;;2.17;;
3299;SDS011;1662;49.310;8.134;2023-08-07T11:34:19;2.33;;;2.17;;
3299;SDS011;1662;49.310;8.134;2023-08-07T11:36:46;4.00;;;1.83;;
3299;SDS011;1662;49.310;8.134;2023-08-07T11:39:14;1.80;;;1.70;;
3299;SDS011;1662;49.310;8.134;2023-08-07T11:41:45;2.50;;;2.27;;
3299;SDS011;1662;49.310;8.134;2023-08-07T11:44:11;2.00;;;1.90;;
3299;SDS011;1662;49.310;8.134;2023-08-07T11:46:37;1.80;;;1.73;;
3299;SDS011;1662;49.310;8.134;2023-08-07T11:49:03;2.13;;;1.83;;
3299;SDS011;1662;49.310;8.134;2023-08-07T11:51:29;3.20;;;2.00;;
3299;SDS011;1662;49.310;8.134;2023-08-07T11:53:55;4.57;;;2.07;;
3299;SDS011;1662;49.310;8.134;2023-08-07T11:56:24;2.53;;;2.43;;
3299;SDS011;1662;49.310;8.134;2023-08-07T11:58:52;2.43;;;2.20;;
3299;SDS011;1662;49.310;8.134;2023-08-07T12:01:19;2.20;;;2.10;;
3299;SDS011;1662;49.310;8.134;2023-08-07T12:03:53;2.17;;;2.00;;
3299;SDS011;1662;49.310;8.134;2023-08-07T12:06:38;2.50;;;2.40;;
3299;SDS011;1662;49.310;8.134;2023-08-07T12:09:17;2.10;;;2.00;;
3299;SDS011;1662;49.310;8.134;2023-08-07T12:11:42;3.20;;;2.20;;
3299;SDS011;1662;49.310;8.134;2023-08-07T12:14:08;3.10;;;1.97;;
3299;SDS011;1662;49.310;8.134;2023-08-07T12:16:43;2.10;;;2.00;;
3299;SDS011;1662;49.310;8.134;2023-08-07T12:19:12;2.20;;;2.03;;
3299;SDS011;1662;49.310;8.134;2023-08-07T12:21:39;2.10;;;2.00;;
3299;SDS011;1662;49.310;8.134;2023-08-07T12:24:06;2.13;;;2.03;;
3299;SDS011;1662;49.310;8.134;2023-08-07T12:26:32;2.10;;;2.00;;
3299;SDS011;1662;49.310;8.134;2023-08-07T12:28:58;3.80;;;3.50;;
3299;SDS011;1662;49.310;8.134;2023-08-07T12:31:24;2.10;;;2.10;;
3299;SDS011;1662;49.310;8.134;2023-08-07T12:33:49;2.63;;;2.27;;
3299;SDS011;1662;49.310;8.134;2023-08-07T12:36:17;2.30;;;2.20;;
3299;SDS011;1662;49.310;8.134;2023-08-07T12:38:43;2.50;;;2.40;;
3299;SDS011;1662;49.310;8.134;2023-08-07T12:41:08;2.83;;;2.73;;
3299;SDS011;1662;49.310;8.134;2023-08-07T12:43:34;3.40;;;3.20;;
3299;SDS011;1662;49.310;8.134;2023-08-07T12:46:00;3.00;;;2.90;;
3299;SDS011;1662;49.310;8.134;2023-08-07T12:48:26;3.10;;;3.00;;
3299;SDS011;1662;49.310;8.134;2023-08-07T12:50:53;3.50;;;3.37;;
3299;SDS011;1662;49.310;8.134;2023-08-07T12:53:19;2.90;;;2.80;;
3299;SDS011;1662;49.310;8.134;2023-08-07T12:55:44;3.30;;;3.03;;
3299;SDS011;1662;49.310;8.134;2023-08-07T12:58:10;2.90;;;2.80;;
3299;SDS011;1662;49.310;8.134;2023-08-07T13:00:36;3.33;;;3.13;;
3299;SDS011;1662;49.310;8.134;2023-08-07T13:03:01;3.30;;;3.20;;
3299;SDS011;1662;49.310;8.134;2023-08-07T13:05:27;3.40;;;3.20;;
3299;SDS011;1662;49.310;8.134;2023-08-07T13:07:56;3.17;;;3.03;;
3299;SDS011;1662;49.310;8.134;2023-08-07T13:10:23;3.00;;;2.90;;
3299;SDS011;1662;49.310;8.134;2023-08-07T13:12:49;3.20;;;3.10;;
3299;SDS011;1662;49.310;8.134;2023-08-07T13:15:15;3.30;;;3.00;;
3299;SDS011;1662;49.310;8.134;2023-08-07T13:17:42;3.43;;;3.30;;
3299;SDS011;1662;49.310;8.134;2023-08-07T13:20:09;3.63;;;3.43;;
3299;SDS011;1662;49.310;8.134;2023-08-07T13:22:38;4.03;;;3.73;;
3299;SDS011;1662;49.310;8.134;2023-08-07T13:25:05;3.60;;;3.50;;
3299;SDS011;1662;49.310;8.134;2023-08-07T13:27:32;3.33;;;3.23;;
3299;SDS011;1662;49.310;8.134;2023-08-07T13:29:58;4.13;;;4.03;;
3299;SDS011;1662;49.310;8.134;2023-08-07T13:32:24;4.07;;;3.93;;
3299;SDS011;1662;49.310;8.134;2023-08-07T13:34:53;4.13;;;3.93;;
3299;SDS011;1662;49.310;8.134;2023-08-07T13:37:19;4.63;;;4.53;;
3299;SDS011;1662;49.310;8.134;2023-08-07T13:39:45;4.30;;;4.20;;
3299;SDS011;1662;49.310;8.134;2023-08-07T13:42:13;4.97;;;4.77;;
3299;SDS011;1662;49.310;8.134;2023-08-07T13:44:38;5.73;;;5.43;;
3299;SDS011;1662;49.310;8.134;2023-08-07T13:47:04;4.77;;;4.67;;
3299;SDS011;1662;49.310;8.134;2023-08-07T13:49:30;5.50;;;5.20;;
3299;SDS011;1662;49.310;8.134;2023-08-07T13:51:56;5.57;;;5.37;;
3299;SDS011;1662;49.310;8.134;2023-08-07T13:54:24;5.93;;;5.73;;
3299;SDS011;1662;49.310;8.134;2023-08-07T13:56:49;5.50;;;5.20;;
3299;SDS011;1662;49.310;8.134;2023-08-07T13:59:15;5.53;;;5.27;;
3299;SDS011;1662;49.310;8.134;2023-08-07T14:01:41;5.20;;;4.87;;
3299;SDS011;1662;49.310;8.134;2023-08-07T14:04:06;4.83;;;4.53;;
3299;SDS011;1662;49.310;8.134;2023-08-07T14:06:32;4.33;;;4.23;;
3299;SDS011;1662;49.310;8.134;2023-08-07T14:08:58;5.10;;;4.80;;
3299;SDS011;1662;49.310;8.134;2023-08-07T14:11:24;5.00;;;4.70;;
3299;SDS011;1662;49.310;8.134;2023-08-07T14:13:55;4.97;;;4.67;;
3299;SDS011;1662;49.310;8.134;2023-08-07T14:16:23;4.70;;;4.60;;
3299;SDS011;1662;49.310;8.134;2023-08-07T14:18:50;4.93;;;4.77;;
3299;SDS011;1662;49.310;8.134;2023-08-07T14:21:16;5.63;;;5.23;;
3299;SDS011;1662;49.310;8.134;2023-08-07T14:23:41;5.30;;;5.10;;
3299;SDS011;1662;49.310;8.134;2023-08-07T14:26:10;4.97;;;4.87;;
3299;SDS011;1662;49.310;8.134;2023-08-07T14:28:36;5.07;;;4.87;;
3299;SDS011;1662;49.310;8.134;2023-08-07T14:31:05;4.67;;;4.47;;
3299;SDS011;1662;49.310;8.134;2023-08-07T14:33:32;5.10;;;4.90;;
3299;SDS011;1662;49.310;8.134;2023-08-07T14:35:57;5.57;;;5.27;;
3299;SDS011;1662;49.310;8.134;2023-08-07T14:38:23;7.10;;;5.17;;
3299;SDS011;1662;49.310;8.134;2023-08-07T14:40:49;5.50;;;5.23;;
3299;SDS011;1662;49.310;8.134;2023-08-07T14:43:14;5.50;;;5.23;;
3299;SDS011;1662;49.310;8.134;2023-08-07T14:45:40;4.90;;;4.80;;
3299;SDS011;1662;49.310;8.134;2023-08-07T14:48:05;5.30;;;5.00;;
3299;SDS011;1662;49.310;8.134;2023-08-07T14:50:32;4.83;;;4.73;;
3299;SDS011;1662;49.310;8.134;2023-08-07T14:53:03;5.67;;;5.37;;
3299;SDS011;1662;49.310;8.134;2023-08-07T14:55:31;5.90;;;5.30;;
3299;SDS011;1662;49.310;8.134;2023-08-07T14:57:56;5.87;;;5.63;;
3299;SDS011;1662;49.310;8.134;2023-08-07T15:00:22;5.80;;;5.50;;
3299;SDS011;1662;49.310;8.134;2023-08-07T15:02:48;5.97;;;5.67;;
3299;SDS011;1662;49.310;8.134;2023-08-07T15:05:14;5.30;;;5.10;;
3299;SDS011;1662;49.310;8.134;2023-08-07T15:07:39;4.87;;;4.77;;
3299;SDS011;1662;49.310;8.134;2023-08-07T15:10:05;5.50;;;5.20;;
3299;SDS011;1662;49.310;8.134;2023-08-07T15:12:32;5.70;;;5.40;;
3299;SDS011;1662;49.310;8.134;2023-08-07T15:14:58;5.43;;;5.23;;
3299;SDS011;1662;49.310;8.134;2023-08-07T15:17:30;5.40;;;5.20;;
3299;SDS011;1662;49.310;8.134;2023-08-07T15:19:55;5.73;;;5.47;;
3299;SDS011;1662;49.310;8.134;2023-08-07T15:22:21;5.30;;;5.20;;
3299;SDS011;1662;49.310;8.134;2023-08-07T15:24:49;5.50;;;5.30;;
3299;SDS011;1662;49.310;8.134;2023-08-07T15:27:17;5.70;;;5.50;;